Time;durP1;ratioP1;P1;durP2;ratioP2;P2;SDS_P1;SDS_P2;PMS_P1;PMS_P2;Temp;Humidity;BMP_temperature;BMP_pressure;BME280_temperature;BME280_humidity;BME280_pressure;Samples;Min_cycle;Max_cycle;Signal;HPM_P1;HPM_P2
2021/01/11 00:00:33;;;;;;;31.42;18.00;;;;;;;-1.97;85.88;101197.69;5040967;28;20052;-82
2021/01/11 00:03:02;;;;;;;24.42;14.63;;;;;;;-1.96;85.90;101193.38;5046000;28;20072;-84
2021/01/11 00:05:29;;;;;;;32.05;18.67;;;;;;;-1.96;86.00;101188.16;5047315;28;20078;-84
2021/01/11 00:07:56;;;;;;;34.58;19.58;;;;;;;-2.04;87.24;101180.25;5089119;28;20056;-85
2021/01/11 00:10:24;;;;;;;35.63;18.70;;;;;;;-2.07;87.12;101181.94;5048297;28;20033;-84
2021/01/11 00:12:50;;;;;;;33.50;18.52;;;;;;;-2.04;87.80;101189.75;5041495;28;20049;-84
2021/01/11 00:15:18;;;;;;;33.45;19.17;;;;;;;-2.07;87.43;101177.63;5058653;28;20264;-83
2021/01/11 00:17:47;;;;;;;32.03;18.58;;;;;;;-2.10;87.87;101174.97;5056882;28;20057;-82
2021/01/11 00:20:13;;;;;;;34.75;19.63;;;;;;;-2.12;88.02;101172.34;5057185;28;20057;-83
2021/01/11 00:22:43;;;;;;;36.08;20.23;;;;;;;-2.12;88.26;101180.13;5051531;28;20458;-83
2021/01/11 00:25:12;;;;;;;;;;;;;;;-2.08;88.15;101175.88;5073868;28;20030;-82
2021/01/11 00:27:42;;;;;;;34.85;19.27;;;;;;;-2.09;87.99;101161.16;5069864;28;19977;-83
2021/01/11 00:30:10;;;;;;;34.22;19.08;;;;;;;-2.05;88.16;101159.47;5037838;28;20042;-82
2021/01/11 00:32:38;;;;;;;33.33;19.38;;;;;;;-2.06;88.71;101163.81;5046396;28;20053;-84
2021/01/11 00:35:06;;;;;;;33.42;19.70;;;;;;;-2.04;88.66;101164.66;5039161;28;20073;-84
2021/01/11 00:37:33;;;;;;;33.80;19.58;;;;;;;-2.05;88.69;101160.34;5043913;28;20042;-84
2021/01/11 00:40:00;;;;;;;30.13;18.60;;;;;;;-1.98;88.39;101163.91;5056872;28;20045;-85
2021/01/11 00:42:27;;;;;;;31.08;18.92;;;;;;;-1.97;88.55;101169.13;5045862;28;20033;-85
2021/01/11 00:44:53;;;;;;;33.13;19.65;;;;;;;-1.97;88.11;101165.66;5055566;28;20043;-84
2021/01/11 00:47:19;;;;;;;34.65;19.42;;;;;;;-1.91;87.70;101166.63;5057322;28;20097;-84
2021/01/11 00:49:46;;;;;;;34.70;19.55;;;;;;;-1.98;87.05;101163.91;5070465;28;20041;-84
2021/01/11 00:52:12;;;;;;;32.95;19.48;;;;;;;-1.96;87.59;101167.41;5033450;28;20053;-84
2021/01/11 00:54:41;;;;;;;30.88;18.83;;;;;;;-1.95;87.70;101180.41;5027092;28;20105;-85
2021/01/11 00:57:10;;;;;;;32.72;19.25;;;;;;;-1.95;87.18;101174.34;5035604;28;20137;-84
2021/01/11 00:59:37;;;;;;;29.05;17.65;;;;;;;-1.99;87.32;101182.91;5033104;28;20046;-84
2021/01/11 01:02:03;;;;;;;33.25;18.40;;;;;;;-2.04;87.54;101181.97;5035869;28;20045;-85
2021/01/11 01:04:35;;;;;;;32.40;19.52;;;;;;;-1.99;87.25;101190.72;5036699;28;20052;-85
2021/01/11 01:07:05;;;;;;;32.97;18.88;;;;;;;-2.02;87.42;101194.13;5031884;28;20474;-84
2021/01/11 01:09:32;;;;;;;32.80;18.40;;;;;;;-2.03;86.40;101197.56;5029140;28;20049;-84
2021/01/11 01:11:59;;;;;;;33.08;18.70;;;;;;;-2.13;86.40;101208.66;5031511;28;20037;-84
2021/01/11 01:14:26;;;;;;;34.83;19.20;;;;;;;-2.14;86.42;101205.19;5041672;28;20046;-84
2021/01/11 01:16:53;;;;;;;29.80;17.33;;;;;;;-2.20;86.10;101202.47;5032431;28;20797;-84
2021/01/11 01:19:19;;;;;;;34.15;19.38;;;;;;;-2.23;85.86;101204.16;5038381;28;20094;-84
2021/01/11 01:21:46;;;;;;;31.17;18.55;;;;;;;-2.20;86.07;101219.75;5026921;28;20065;-84
2021/01/11 01:24:12;;;;;;;33.78;19.80;;;;;;;-2.16;86.17;101217.25;5034457;28;20068;-85
2021/01/11 01:26:39;;;;;;;31.20;18.33;;;;;;;-2.30;84.96;101215.25;5027297;28;20056;-84
2021/01/11 01:29:06;;;;;;;32.95;18.80;;;;;;;-2.45;85.29;101212.38;5052668;28;20041;-84
2021/01/11 01:31:32;;;;;;;33.22;19.25;;;;;;;-2.42;85.97;101217.63;5034273;28;20081;-84
2021/01/11 01:33:58;;;;;;;32.65;18.55;;;;;;;-2.39;85.70;101221.16;5041822;28;20041;-84
2021/01/11 01:36:25;;;;;;;30.33;17.95;;;;;;;-2.40;86.07;101222.00;5036005;28;20126;-83
2021/01/11 01:38:51;;;;;;;33.15;18.67;;;;;;;-2.37;85.80;101226.38;5079795;28;20037;-84
2021/01/11 01:41:18;;;;;;;35.20;19.50;;;;;;;-2.41;86.03;101235.81;5049135;28;20125;-83
2021/01/11 01:43:44;;;;;;;33.03;18.50;;;;;;;-2.43;85.89;101229.72;5036841;28;20050;-82
2021/01/11 01:46:21;;;;;;;35.92;19.50;;;;;;;-2.47;85.85;101230.50;5049051;28;20042;-83
2021/01/11 01:48:49;;;;;;;34.03;18.95;;;;;;;-2.51;86.08;101221.78;5055795;28;20118;-84
2021/01/11 01:51:18;;;;;;;33.95;19.52;;;;;;;-2.55;85.99;101226.91;5043688;28;20046;-84
2021/01/11 01:53:47;;;;;;;34.72;19.55;;;;;;;-2.55;86.55;101225.19;5021744;28;20069;-84
2021/01/11 01:56:15;;;;;;;36.22;19.88;;;;;;;-2.57;87.33;101220.81;5032891;28;20073;-83
2021/01/11 01:58:43;;;;;;;34.38;19.23;;;;;;;-2.50;87.56;101226.13;5028278;28;20044;-83
2021/01/11 02:01:10;;;;;;;32.50;19.58;;;;;;;-2.43;87.30;101218.47;5033706;28;20055;-83
2021/01/11 02:03:37;;;;;;;37.22;20.27;;;;;;;-2.44;86.83;101215.00;5027949;28;20418;-83
2021/01/11 02:06:05;;;;;;;37.78;20.00;;;;;;;-2.49;87.07;101217.50;5028867;28;20120;-84
2021/01/11 02:08:57;;;;;;;31.15;19.10;;;;;;;-2.51;87.27;101215.72;5016798;28;20068;-84
2021/01/11 02:11:29;;;;;;;37.55;20.58;;;;;;;-2.51;88.07;101208.81;5031707;28;20132;-84
2021/01/11 02:14:10;;;;;;;35.47;19.88;;;;;;;-2.50;87.92;101204.50;5041817;28;20140;-83
2021/01/11 02:16:36;;;;;;;34.25;19.95;;;;;;;-2.51;87.87;101203.63;5035059;28;20048;-84
2021/01/11 02:19:17;;;;;;;35.35;18.92;;;;;;;-2.53;87.73;101201.88;5042200;28;20045;-84
2021/01/11 02:21:53;;;;;;;36.80;20.58;;;;;;;-2.54;87.57;101198.41;5047763;28;20053;-84
2021/01/11 02:24:56;;;;;;;38.45;20.50;;;;;;;-2.58;87.55;101201.78;5047708;28;20045;-84
2021/01/11 02:27:38;;;;;;;34.75;19.58;;;;;;;-2.62;87.70;101187.00;5049110;28;20124;-83
2021/01/11 02:30:10;;;;;;;33.88;19.00;;;;;;;-2.67;88.07;101191.22;5041021;28;20038;-83
2021/01/11 02:32:49;;;;;;;36.25;19.77;;;;;;;-2.70;88.15;101175.63;5031837;28;20432;-83
2021/01/11 02:35:18;;;;;;;32.42;18.65;;;;;;;-2.69;88.32;101182.56;5038478;28;20080;-83
2021/01/11 02:37:46;;;;;;;34.83;19.50;;;;;;;-2.70;88.60;101174.75;5032567;28;20037;-83
2021/01/11 02:40:13;;;;;;;35.30;19.98;;;;;;;-2.70;88.74;101177.34;5040355;28;20044;-82
2021/01/11 02:42:41;;;;;;;34.58;19.33;;;;;;;-2.68;88.74;101170.47;5046867;28;20045;-83
2021/01/11 02:45:09;;;;;;;35.38;18.75;;;;;;;-2.69;88.64;101169.59;5046126;28;20042;-83
2021/01/11 02:48:02;;;;;;;34.00;18.58;;;;;;;-2.68;88.72;101167.88;5038175;28;20049;-83
2021/01/11 02:50:34;;;;;;;35.33;18.80;;;;;;;-2.70;88.78;101165.25;5038291;28;20058;-83
2021/01/11 02:53:21;;;;;;;34.88;18.95;;;;;;;-2.71;88.74;101162.63;5029363;28;20163;-83
2021/01/11 02:55:54;;;;;;;34.53;19.33;;;;;;;-2.73;88.28;101156.53;5039785;28;20049;-83
2021/01/11 02:58:42;;;;;;;33.85;19.98;;;;;;;-2.69;88.61;101164.41;5037017;28;20073;-82
2021/01/11 03:01:16;;;;;;;36.72;19.13;;;;;;;-2.67;88.60;101164.41;5070673;28;20124;-83
2021/01/11 03:03:47;;;;;;;33.72;19.45;;;;;;;-2.66;88.58;101159.25;5048432;28;20037;-83
2021/01/11 03:06:17;;;;;;;36.40;19.88;;;;;;;-2.64;88.12;101160.16;5046553;28;20037;-83
2021/01/11 03:08:46;;;;;;;32.47;19.00;;;;;;;-2.58;88.03;101170.66;5052002;28;20047;-82
2021/01/11 03:11:12;;;;;;;36.28;19.60;;;;;;;-2.55;87.71;101160.34;5071086;28;20105;-83
2021/01/11 03:13:39;;;;;;;33.67;19.20;;;;;;;-2.52;87.40;101169.91;5068868;28;20061;-82
2021/01/11 03:16:05;;;;;;;32.35;18.58;;;;;;;-2.55;87.67;101164.66;5048366;28;20516;-84
2021/01/11 03:18:32;;;;;;;34.53;19.13;;;;;;;-2.57;86.23;101168.94;5044709;28;20042;-83
2021/01/11 03:20:58;;;;;;;34.42;19.35;;;;;;;-2.61;86.10;101156.75;5059364;28;20061;-84
2021/01/11 03:23:24;;;;;;;31.60;17.83;;;;;;;-2.61;85.64;101162.81;5062665;28;20033;-84
2021/01/11 03:25:51;;;;;;;35.63;18.90;;;;;;;-2.76;85.02;101165.13;5074569;28;20042;-83
2021/01/11 03:28:17;;;;;;;34.38;18.88;;;;;;;-2.88;86.14;101170.97;5067933;28;20037;-83
2021/01/11 03:30:45;;;;;;;32.60;18.30;;;;;;;-2.88;86.78;101165.78;5048249;28;20137;-83
2021/01/11 03:33:11;;;;;;;34.15;18.58;;;;;;;-2.89;86.67;101153.66;5045902;28;20108;-83
2021/01/11 03:35:39;;;;;;;33.95;18.75;;;;;;;-2.87;86.68;101166.66;5040519;28;20033;-83
2021/01/11 03:38:05;;;;;;;30.15;18.60;;;;;;;-2.89;86.86;101156.25;5032436;28;20052;-83
2021/01/11 03:40:31;;;;;;;34.28;19.02;;;;;;;-3.03;86.14;101157.69;5041012;28;20060;-84
2021/01/11 03:43:00;;;;;;;31.65;18.10;;;;;;;-2.97;86.31;101162.09;5033477;28;20050;-84
2021/01/11 03:45:26;;;;;;;38.08;19.45;;;;;;;-2.93;86.76;101161.34;5037554;28;20052;-84
2021/01/11 03:47:53;;;;;;;33.05;18.83;;;;;;;-2.93;86.78;101159.63;5035694;28;20041;-83
2021/01/11 03:50:20;;;;;;;31.30;17.90;;;;;;;-2.87;86.89;101161.47;5037767;28;20056;-82
2021/01/11 03:52:47;;;;;;;32.53;18.63;;;;;;;-2.87;86.46;101162.34;5037261;28;20106;-84
2021/01/11 03:55:16;;;;;;;36.67;18.58;;;;;;;-2.88;86.58;101165.78;5047798;28;20037;-83
2021/01/11 03:57:42;;;;;;;33.95;18.50;;;;;;;-2.93;86.63;101161.34;5045831;28;20056;-83
2021/01/11 04:00:09;;;;;;;34.17;18.52;;;;;;;-2.98;87.06;101152.59;5054152;28;20037;-83
2021/01/11 04:02:36;;;;;;;32.25;18.45;;;;;;;-2.98;87.17;101155.19;5054392;28;20068;-82
2021/01/11 04:05:03;;;;;;;33.88;18.45;;;;;;;-2.98;87.08;101158.63;5042497;28;20041;-83
2021/01/11 04:07:29;;;;;;;36.17;18.63;;;;;;;-2.96;87.33;101161.25;5058765;28;20049;-82
2021/01/11 04:09:55;;;;;;;33.13;18.70;;;;;;;-2.92;87.00;101163.09;5043542;28;20030;-83
2021/01/11 04:12:22;;;;;;;33.47;18.27;;;;;;;-2.92;87.13;101158.78;5048065;28;20113;-83
2021/01/11 04:14:48;;;;;;;34.70;18.48;;;;;;;-2.93;87.28;101148.38;5048965;28;20105;-83
2021/01/11 04:17:16;;;;;;;32.95;18.30;;;;;;;-2.96;87.40;101140.53;5059427;28;20041;-83
2021/01/11 04:19:43;;;;;;;33.03;17.80;;;;;;;-2.93;87.47;101143.19;5067607;28;20050;-84
2021/01/11 04:22:09;;;;;;;35.67;18.83;;;;;;;-2.90;87.83;101146.72;5049104;28;20064;-84
2021/01/11 04:24:36;;;;;;;33.35;18.55;;;;;;;-2.86;87.80;101145.06;5047895;28;20053;-83
2021/01/11 04:27:04;;;;;;;33.47;18.52;;;;;;;-2.84;87.85;101144.25;5038173;28;20076;-83
2021/01/11 04:29:30;;;;;;;33.05;19.17;;;;;;;-2.75;87.81;101150.44;5047802;28;20154;-83
2021/01/11 04:31:58;;;;;;;33.70;18.98;;;;;;;-2.75;87.67;101146.13;5064258;28;20105;-84
2021/01/11 04:34:24;;;;;;;31.50;19.40;;;;;;;-2.80;87.07;101140.00;5029474;28;20049;-83
2021/01/11 04:36:52;;;;;;;36.78;19.95;;;;;;;-2.83;87.22;101138.22;5061240;28;20102;-83
2021/01/11 04:39:18;;;;;;;35.55;18.50;;;;;;;-2.88;87.44;101142.44;5046871;28;20038;-84
2021/01/11 04:41:45;;;;;;;33.28;18.35;;;;;;;-2.87;87.40;101158.88;5047232;28;20104;-83
2021/01/11 04:44:15;;;;;;;34.55;19.60;;;;;;;-2.83;87.27;101148.56;5042238;28;20064;-85
2021/01/11 04:46:43;;;;;;;32.67;17.50;;;;;;;-2.65;85.86;101158.41;5049510;28;20064;-83
2021/01/11 04:49:10;;;;;;;32.13;17.80;;;;;;;-2.62;85.99;101155.00;5042916;28;20030;-83
2021/01/11 04:51:41;;;;;;;30.95;17.67;;;;;;;-2.57;85.33;101145.63;5062845;28;20093;-83
2021/01/11 04:54:08;;;;;;;32.05;17.67;;;;;;;-2.61;85.24;101147.28;5048060;28;20271;-84
2021/01/11 04:56:40;;;;;;;32.70;18.02;;;;;;;-2.66;85.50;101146.28;5045928;28;20109;-85
2021/01/11 04:59:08;;;;;;;34.80;18.48;;;;;;;-2.70;85.96;101144.53;5047099;28;20379;-84
2021/01/11 05:01:35;;;;;;;33.70;18.80;;;;;;;-2.67;85.99;101138.50;5043968;28;20073;-84
2021/01/11 05:04:03;;;;;;;35.35;18.50;;;;;;;-2.63;85.43;101138.59;5043378;28;20050;-84
2021/01/11 05:06:30;;;;;;;33.28;17.98;;;;;;;-2.72;85.22;101130.66;5049427;28;20041;-84
2021/01/11 05:09:07;;;;;;;33.25;17.35;;;;;;;-2.81;86.07;101130.47;5042504;28;20042;-84
2021/01/11 05:11:34;;;;;;;33.53;18.23;;;;;;;-2.89;86.02;101122.56;5049872;28;20037;-84
2021/01/11 05:14:00;;;;;;;33.22;19.20;;;;;;;-2.91;86.79;101121.66;5044960;28;20120;-84
2021/01/11 05:16:27;;;;;;;31.77;17.83;;;;;;;-2.90;87.08;101122.53;5045051;28;20046;-84
2021/01/11 05:19:00;;;;;;;29.52;17.55;;;;;;;-2.84;86.56;101131.31;5043814;28;20056;-84
2021/01/11 05:21:38;;;;;;;31.02;17.52;;;;;;;-2.77;86.06;101137.47;5043426;28;20051;-84
2021/01/11 05:24:32;;;;;;;30.77;17.60;;;;;;;-2.78;85.54;101133.13;5032718;28;20041;-84
2021/01/11 05:27:04;;;;;;;31.77;17.55;;;;;;;-2.85;85.90;101134.75;5032638;28;20100;-83
2021/01/11 05:29:30;;;;;;;33.00;17.70;;;;;;;-2.91;85.87;101131.16;5039059;28;20041;-83
2021/01/11 05:32:09;;;;;;;34.30;18.77;;;;;;;-2.94;85.83;101131.94;5045042;28;20056;-83
2021/01/11 05:34:51;;;;;;;32.33;18.10;;;;;;;-2.95;85.30;101132.78;5047819;28;20048;-84
2021/01/11 05:37:39;;;;;;;30.10;17.73;;;;;;;-2.93;84.81;101148.38;5047013;28;20102;-83
2021/01/11 05:40:34;;;;;;;29.80;17.20;;;;;;;-2.83;85.52;101147.69;5032540;28;20050;-83
2021/01/11 05:43:00;;;;;;;29.92;17.05;;;;;;;-2.76;84.78;101146.09;5025724;28;20065;-84
2021/01/11 05:45:33;;;;;;;28.58;16.48;;;;;;;-2.74;83.46;101147.00;5043373;28;20110;-84
2021/01/11 05:48:19;;;;;;;29.65;16.58;;;;;;;-2.76;83.40;101159.06;5036110;28;20085;-83
2021/01/11 05:50:50;;;;;;;31.30;16.77;;;;;;;-2.80;83.66;101163.31;5036795;28;20046;-83
2021/01/11 05:53:17;;;;;;;27.30;16.23;;;;;;;-2.77;83.50;101158.19;5038910;28;20049;-84
2021/01/11 05:55:45;;;;;;;25.65;15.30;;;;;;;-2.77;83.81;101163.38;5047636;28;20132;-83
2021/01/11 05:58:17;;;;;;;28.50;16.15;;;;;;;-2.90;83.70;101164.00;5045036;28;20045;-83
2021/01/11 06:00:44;;;;;;;27.00;15.05;;;;;;;-3.00;84.26;101172.44;5051911;28;20109;-83
2021/01/11 06:03:12;;;;;;;29.13;15.82;;;;;;;-3.07;85.36;101165.38;5031529;28;20045;-83
2021/01/11 06:05:40;;;;;;;25.48;15.20;;;;;;;-3.10;85.26;101160.13;5029588;28;20075;-84
2021/01/11 06:08:09;;;;;;;28.08;14.93;;;;;;;-3.12;86.00;101165.25;5023472;28;20601;-84
2021/01/11 06:10:37;;;;;;;21.30;12.23;;;;;;;-3.15;86.27;101154.00;5039254;28;20053;-83
2021/01/11 06:13:08;;;;;;;30.45;16.20;;;;;;;-3.15;86.15;101148.81;5046328;28;20751;-84
2021/01/11 06:15:38;;;;;;;31.65;16.83;;;;;;;-3.15;86.79;101148.81;5032258;28;20057;-83
2021/01/11 06:18:12;;;;;;;36.40;18.08;;;;;;;-3.13;87.20;101145.38;5028738;28;20128;-83
2021/01/11 06:20:47;;;;;;;33.22;17.02;;;;;;;-3.14;86.99;101147.94;5036870;28;20053;-84
2021/01/11 06:23:25;;;;;;;31.63;16.05;;;;;;;-3.08;87.26;101155.84;5029918;28;20037;-83
2021/01/11 06:25:54;;;;;;;35.38;16.42;;;;;;;-2.96;86.62;101156.09;5032372;28;20052;-83
2021/01/11 06:28:33;;;;;;;28.25;15.07;;;;;;;-2.86;86.04;101158.03;5027760;28;20058;-83
2021/01/11 06:31:12;;;;;;;30.17;15.77;;;;;;;-2.83;85.97;101152.88;5056925;28;20084;-83
2021/01/11 06:33:42;;;;;;;25.20;12.07;;;;;;;-2.85;85.76;101144.22;5030975;28;20045;-84
2021/01/11 06:36:23;;;;;;;29.77;15.82;;;;;;;-2.90;85.85;101138.94;5029327;28;20045;-84
2021/01/11 06:38:53;;;;;;;28.85;15.55;;;;;;;-2.94;85.48;101144.03;5022341;28;20046;-84
2021/01/11 06:41:23;;;;;;;27.17;14.95;;;;;;;-3.04;85.74;101143.00;5027476;28;20107;-84
2021/01/11 06:43:52;;;;;;;31.02;16.17;;;;;;;-3.13;85.64;101119.47;5030697;28;20797;-83
2021/01/11 06:46:42;;;;;;;29.05;16.83;;;;;;;-3.15;87.01;101126.38;5034426;28;20045;-83
2021/01/11 06:49:30;;;;;;;27.48;15.23;;;;;;;-3.20;86.48;101125.41;5026801;28;20104;-83
2021/01/11 06:52:08;;;;;;;26.98;15.52;;;;;;;-3.22;87.63;101124.47;5042024;28;20037;-85
2021/01/11 06:54:41;;;;;;;33.92;17.67;;;;;;;-3.24;87.48;101119.28;5038849;28;20053;-83
2021/01/11 06:57:16;;;;;;;31.50;16.55;;;;;;;-3.15;88.32;101122.91;5046211;28;20046;-82
2021/01/11 06:59:46;;;;;;;27.80;15.48;;;;;;;-3.02;87.75;101117.13;5024078;28;20061;-83
2021/01/11 07:02:23;;;;;;;33.38;17.13;;;;;;;-2.91;87.79;101111.28;5024669;28;20049;-84
2021/01/11 07:04:51;;;;;;;30.13;17.00;;;;;;;-2.87;87.12;101109.63;5053819;28;20046;-85
2021/01/11 07:07:27;;;;;;;37.25;19.58;;;;;;;-2.93;87.32;101094.84;5026576;28;20044;-84
2021/01/11 07:09:57;;;;;;;30.70;17.35;;;;;;;-2.98;87.26;101100.75;5027505;28;20041;-84
2021/01/11 07:12:24;;;;;;;37.83;19.33;;;;;;;-3.00;87.36;101108.53;5028219;28;20057;-85
2021/01/11 07:15:14;;;;;;;39.80;20.02;;;;;;;-3.00;87.92;101112.84;5028977;28;20051;-84
2021/01/11 07:17:48;;;;;;;34.38;18.17;;;;;;;-2.97;87.60;101118.94;5045138;28;20056;-83
2021/01/11 07:20:40;;;;;;;30.50;17.05;;;;;;;-2.83;86.29;101133.03;5038531;28;20060;-83
2021/01/11 07:23:06;;;;;;;29.90;16.08;;;;;;;-2.75;86.30;101153.91;5031870;28;20049;-82
2021/01/11 07:25:36;;;;;;;28.55;16.02;;;;;;;-2.72;85.46;101156.56;5030629;28;20141;-82
2021/01/11 07:28:04;;;;;;;29.88;15.57;;;;;;;-2.75;85.71;101166.88;5036175;28;20052;-84
2021/01/11 07:30:35;;;;;;;29.48;15.93;;;;;;;-2.77;85.98;101160.78;5044305;28;20048;-81
2021/01/11 07:33:11;;;;;;;30.95;15.68;;;;;;;-2.78;85.70;101161.63;5042271;28;20058;-82
2021/01/11 07:35:39;;;;;;;29.98;15.60;;;;;;;-2.68;85.52;101158.38;5043849;28;20092;-82
2021/01/11 07:38:11;;;;;;;30.05;15.45;;;;;;;-2.65;85.25;101157.53;5050037;28;20158;-83
2021/01/11 07:40:38;;;;;;;29.88;16.25;;;;;;;-2.68;84.96;101145.44;5051954;28;20042;-83
2021/01/11 07:43:06;;;;;;;29.20;16.40;;;;;;;-2.71;85.38;101150.53;5043961;28;20054;-83
2021/01/11 07:45:34;;;;;;;30.75;16.00;;;;;;;-2.76;85.22;101144.38;5044827;28;20037;-83
2021/01/11 07:48:00;;;;;;;31.45;16.25;;;;;;;-2.70;85.56;101151.41;5039359;28;20141;-83
2021/01/11 07:50:30;;;;;;;32.08;16.80;;;;;;;-2.64;85.82;101160.16;5038181;28;20037;-83
2021/01/11 07:52:58;;;;;;;28.70;16.73;;;;;;;-2.53;84.83;101157.78;5043509;28;20167;-83
2021/01/11 07:55:29;;;;;;;29.40;15.77;;;;;;;-2.59;84.53;101149.88;5045384;28;20189;-84
2021/01/11 07:58:02;;;;;;;32.13;18.25;;;;;;;-2.70;84.76;101131.56;5038900;28;20046;-84
2021/01/11 08:00:29;;;;;;;30.20;16.42;;;;;;;-2.74;84.48;101132.34;5040058;28;20042;-83
2021/01/11 08:02:57;;;;;;;29.83;16.67;;;;;;;-2.78;85.28;101135.72;5036433;28;20694;-81
2021/01/11 08:05:28;;;;;;;28.20;16.30;;;;;;;-2.74;85.05;101134.06;5036030;28;20060;-82
2021/01/11 08:08:07;;;;;;;31.13;16.83;;;;;;;-2.73;85.39;101125.44;5046621;28;20048;-84
2021/01/11 08:10:35;;;;;;;50.90;17.05;;;;;;;-2.67;84.91;101123.81;5031607;28;20101;-83
2021/01/11 08:13:07;;;;;;;29.58;16.75;;;;;;;-2.60;85.27;101128.28;5042395;28;20149;-83
2021/01/11 08:15:33;;;;;;;;;;;;;;;-2.54;84.52;101123.22;5031635;28;20093;-84
2021/01/11 08:18:04;;;;;;;30.58;15.27;;;;;;;-2.50;84.32;101137.94;5046549;28;19967;-83
2021/01/11 08:20:30;;;;;;;30.85;17.02;;;;;;;-2.50;84.06;101126.69;5080488;28;20037;-83
2021/01/11 08:23:08;;;;;;;28.95;15.98;;;;;;;-2.53;83.95;101124.97;5040073;28;20056;-83
2021/01/11 08:25:36;;;;;;;33.47;17.67;;;;;;;-2.54;83.13;101130.13;5034830;28;20056;-83
2021/01/11 08:28:06;;;;;;;29.65;17.38;;;;;;;-2.52;83.65;101138.81;5026396;28;20052;-84
2021/01/11 08:30:34;;;;;;;32.50;17.50;;;;;;;-2.50;83.76;101143.13;5038670;28;20041;-83
2021/01/11 08:33:07;;;;;;;33.58;17.05;;;;;;;-2.41;83.73;101157.13;5038141;28;20069;-83
2021/01/11 08:35:33;;;;;;;30.90;17.05;;;;;;;-2.28;83.41;101166.88;5039435;28;20045;-83
2021/01/11 08:38:02;;;;;;;32.17;16.63;;;;;;;-2.16;83.17;101167.06;5030868;28;20042;-83
2021/01/11 08:40:32;;;;;;;29.27;16.58;;;;;;;-2.17;82.12;101148.03;5061781;28;20038;-84
2021/01/11 08:43:19;;;;;;;31.58;17.55;;;;;;;-2.14;82.60;101144.63;5065568;28;20069;-83
2021/01/11 08:45:52;;;;;;;30.15;16.38;;;;;;;-2.02;82.47;101146.53;5035246;28;20052;-83
2021/01/11 08:48:26;;;;;;;32.70;17.02;;;;;;;-1.65;86.50;101154.03;5030521;28;20098;-84
2021/01/11 08:50:52;;;;;;;35.13;17.48;;;;;;;-1.61;80.76;101142.84;5032579;28;20069;-84
2021/01/11 08:53:35;;;;;;;30.83;17.67;;;;;;;-1.69;79.65;101148.78;5033388;28;20042;-82
2021/01/11 08:56:06;;;;;;;35.88;18.95;;;;;;;-1.75;79.59;101148.69;5030090;28;20380;-82
2021/01/11 08:58:55;;;;;;;31.40;18.05;;;;;;;-1.77;79.67;101144.34;5038990;28;20145;-83
2021/01/11 09:01:25;;;;;;;29.85;17.27;;;;;;;-1.76;79.62;101158.22;5027388;28;20054;-88
2021/01/11 09:03:58;;;;;;;30.27;18.10;;;;;;;-1.73;80.07;101147.84;5027301;28;20048;-83
2021/01/11 09:06:45;;;;;;;32.35;17.55;;;;;;;-1.54;79.73;101147.28;5019345;28;20495;-84
2021/01/11 09:09:19;;;;;;;32.50;17.13;;;;;;;-1.46;79.00;101152.59;5034208;28;20045;-83
2021/01/11 09:11:47;;;;;;;30.08;17.75;;;;;;;-1.34;78.83;101157.94;5027112;28;20061;-82
2021/01/11 09:14:17;;;;;;;;;;;;;;;-1.12;77.82;101172.09;5031010;28;20144;-82
2021/01/11 09:16:48;;;;;;;27.58;16.42;;;;;;;-1.10;77.64;101166.03;5039246;28;19917;-85
2021/01/11 09:19:19;;;;;;;32.70;17.35;;;;;;;-1.08;77.49;101159.13;5026699;28;20057;-83
2021/01/11 09:22:01;;;;;;;31.42;16.88;;;;;;;-0.87;76.94;101162.84;5032285;28;20089;-83
2021/01/11 09:24:29;;;;;;;28.23;15.68;;;;;;;-0.69;76.79;101159.59;5049040;28;20033;-83
2021/01/11 09:27:00;;;;;;;32.25;17.13;;;;;;;-0.57;75.97;101175.31;5045494;28;20045;-83
2021/01/11 09:29:32;;;;;;;29.02;16.08;;;;;;;-0.49;74.97;101177.16;5053622;28;20052;-83
2021/01/11 09:31:59;;;;;;;26.90;16.02;;;;;;;-0.53;75.35;101177.97;5047683;28;20037;-83
2021/01/11 09:34:27;;;;;;;31.88;17.67;;;;;;;-0.58;76.20;101179.66;5058088;28;20072;-83
2021/01/11 09:36:55;;;;;;;30.33;16.00;;;;;;;-0.55;76.55;101177.09;5026110;28;20053;-83
2021/01/11 09:39:23;;;;;;;30.33;16.48;;;;;;;-0.63;76.40;101172.69;5044518;28;20045;-83
2021/01/11 09:41:57;;;;;;;28.30;16.30;;;;;;;-0.68;76.51;101179.56;5024126;28;20041;-82
2021/01/11 09:44:29;;;;;;;29.08;16.63;;;;;;;-0.81;76.88;101174.22;5036312;28;20065;-82
2021/01/11 09:47:00;;;;;;;29.30;16.35;;;;;;;-0.90;77.14;101168.88;5036091;28;21824;-82
2021/01/11 09:49:28;;;;;;;26.25;16.08;;;;;;;-1.01;77.30;101162.69;5034628;28;20068;-84
2021/01/11 09:51:56;;;;;;;28.13;15.75;;;;;;;-1.03;77.46;101174.81;5026199;28;20083;-83
2021/01/11 09:54:25;;;;;;;25.10;15.23;;;;;;;-1.07;78.13;101165.22;5034214;28;20421;-83
2021/01/11 09:56:56;;;;;;;26.90;16.30;;;;;;;-0.98;78.91;101164.47;5224068;23;20418;-81
2021/01/11 09:59:31;;;;;;;30.30;16.10;;;;;;;-0.87;78.59;101158.53;5016511;28;20065;-83
2021/01/11 10:02:02;;;;;;;25.47;16.37;;;;;;;-0.63;78.15;101170.06;5020604;28;20101;-81
2021/01/11 10:04:29;;;;;;;28.25;15.75;;;;;;;-0.31;76.54;101180.78;5027133;28;20034;-85
2021/01/11 10:06:57;;;;;;;31.67;16.50;;;;;;;-0.04;76.23;101173.25;5034739;28;20069;-80
2021/01/11 10:09:26;;;;;;;29.48;16.92;;;;;;;0.11;75.18;101160.34;5031558;28;20033;-82
2021/01/11 10:12:00;;;;;;;29.50;16.45;;;;;;;0.43;73.83;101170.13;5032115;28;20033;-83
2021/01/11 10:14:28;;;;;;;28.50;16.20;;;;;;;0.43;73.04;101172.75;5028680;28;20050;-83
2021/01/11 10:16:55;;;;;;;27.70;16.50;;;;;;;0.48;72.91;101168.41;5014822;28;20061;-82
2021/01/11 10:19:26;;;;;;;26.63;16.20;;;;;;;0.56;72.79;101162.41;5022098;28;20058;-82
2021/01/11 10:21:56;;;;;;;25.40;15.68;;;;;;;0.67;72.09;101170.25;5020792;28;20072;-83
2021/01/11 10:24:23;;;;;;;28.23;15.93;;;;;;;0.75;71.87;101162.50;4999381;28;20410;-81
2021/01/11 10:26:52;;;;;;;27.83;16.08;;;;;;;0.87;70.00;101159.94;5017279;28;20050;-83
2021/01/11 10:29:21;;;;;;;27.10;16.20;;;;;;;0.92;71.41;101156.50;5019243;28;20041;-84
2021/01/11 10:31:48;;;;;;;29.77;16.60;;;;;;;0.98;71.33;101168.69;4997546;28;20801;-82
2021/01/11 10:34:18;;;;;;;27.95;16.02;;;;;;;0.90;71.98;101153.00;5015439;28;20042;-81
2021/01/11 10:36:48;;;;;;;28.75;16.70;;;;;;;0.87;71.21;101144.31;5012952;28;20551;-81
2021/01/11 10:39:18;;;;;;;27.67;15.70;;;;;;;0.65;72.20;101138.09;5013639;28;20050;-83
2021/01/11 10:41:48;;;;;;;26.90;14.80;;;;;;;0.59;72.29;101143.31;5013211;28;20045;-81
2021/01/11 10:44:15;;;;;;;28.15;14.93;;;;;;;0.61;72.85;101141.59;5009308;28;20061;-81
2021/01/11 10:46:41;;;;;;;26.15;15.48;;;;;;;0.67;72.53;101133.78;4997865;28;20187;-81
2021/01/11 10:49:09;;;;;;;25.75;15.15;;;;;;;0.71;72.13;101138.16;5000584;28;20466;-81
2021/01/11 10:51:35;;;;;;;27.38;16.48;;;;;;;0.79;72.21;101139.03;4996567;28;20065;-81
2021/01/11 10:54:03;;;;;;;25.30;15.23;;;;;;;0.87;71.51;101134.75;5015894;28;20069;-82
2021/01/11 10:56:35;;;;;;;30.42;17.17;;;;;;;0.85;71.45;101119.94;5011449;28;20054;-81
2021/01/11 10:59:01;;;;;;;28.15;15.57;;;;;;;0.79;72.75;101128.59;5001589;28;20042;-81
2021/01/11 11:01:29;;;;;;;26.98;15.63;;;;;;;0.71;72.57;101130.31;5016872;28;20049;-82
2021/01/11 11:03:55;;;;;;;28.75;16.85;;;;;;;0.67;72.62;101132.03;5019116;28;20108;-82
2021/01/11 11:06:25;;;;;;;28.25;16.30;;;;;;;0.62;73.38;101133.78;5016415;28;20053;-84
2021/01/11 11:08:53;;;;;;;31.42;16.58;;;;;;;0.62;73.32;101132.91;4996355;28;20077;-83
2021/01/11 11:11:20;;;;;;;30.27;17.40;;;;;;;0.70;73.09;101113.81;5016427;28;20045;-82
2021/01/11 11:13:47;;;;;;;30.92;17.52;;;;;;;0.72;72.77;101120.78;5011631;28;20090;-82
2021/01/11 11:16:14;;;;;;;32.60;16.85;;;;;;;0.72;73.12;101106.00;4998353;28;20057;-83
2021/01/11 11:18:43;;;;;;;28.45;16.85;;;;;;;0.74;73.14;101106.88;5018890;28;20148;-84
2021/01/11 11:21:12;;;;;;;27.25;15.57;;;;;;;0.81;73.17;101107.75;5010660;28;20114;-82
2021/01/11 11:23:41;;;;;;;30.30;17.13;;;;;;;0.91;72.62;101102.63;5014984;28;20046;-82
2021/01/11 11:26:10;;;;;;;27.52;16.38;;;;;;;0.92;72.81;101101.75;5030738;28;20057;-82